Weather reports worldwide

Advertisment
Brocken, Germany (10453): temperature & dewpoint: 14.06.2019 06:00:00 - 20.06.2019 06:00:00 (CEST)Brocken, Germany (10453): temperature 5cm: 14.06.2019 06:00:00 - 20.06.2019 06:00:00 (CEST)Brocken, Germany (10453): wind speed & gusts: 14.06.2019 06:00:00 - 20.06.2019 06:00:00 (CEST)Brocken, Germany (10453): wind direction: 14.06.2019 06:00:00 - 20.06.2019 06:00:00 (CEST)Brocken, Germany (10453): visibility: 14.06.2019 06:00:00 - 20.06.2019 06:00:00 (CEST)Brocken, Germany (10453): sunshine duration: 14.06.2019 06:00:00 - 20.06.2019 06:00:00 (CEST)
Date & Time tt [°C] td [°C] tt 5cm [°C] ff [km/h] ff [kn] fx [km/h] fx [kn] dd vv [km] sd [min]
20.06.2019 06:00:00 12,6 8,3 11,8 35 19 42 23 WSW 60 0
20.06.2019 05:00:00 13,6 8,0 11,4 30 16 41 22 WSW 60 0
20.06.2019 04:00:00 13,8 8,8 11,8 36 20 51 27 WSW 60 0
20.06.2019 03:00:00 13,0 8,3 11,3 31 17 59 32 W 50 0
20.06.2019 02:00:00 15,6 9,9 13,0 17 9 41 22 WSW 60 0
20.06.2019 01:00:00 12,9 8,5 11,4 38 20 76 41 W 60 0
20.06.2019 00:00:00 17,0 9,0 13,6 22 12 26 14 S 60 0
19.06.2019 23:00:00 17,1 7,7 12,9 23 12 24 13 S 50 0
19.06.2019 22:00:00 16,7 10,9 13,1 16 9 39 21 S 12 0
19.06.2019 21:00:00 17,6 10,5 13,2 26 14 36 20 S 25 0
19.06.2019 20:00:00 13,9 8,8 6,6 7 4 44 24 NNW 12 0
19.06.2019 19:00:00 18,9 10,6 18,1 8 5 30 16 W 80 0
19.06.2019 18:00:00 20,6 9,2 20,2 22 12 48 26 SSW 80 40
19.06.2019 17:00:00 21,1 8,8 25,3 30 16 46 25 SW 82 57
19.06.2019 16:00:00 21,5 9,0 25,9 31 17 45 24 SSW 82 60
19.06.2019 15:00:00 20,8 8,5 25,9 32 17 49 26 SSW 82 60
19.06.2019 14:00:00 21,3 8,0 25,8 32 17 51 27 S 80 57
19.06.2019 13:00:00 20,2 8,9 26,0 23 12 43 23 SSW 80 56
19.06.2019 12:00:00 19,2 8,0 24,4 27 14 39 21 SSW 80 59
19.06.2019 11:00:00 19,8 8,9 24,3 22 12 40 22 SSW 80 59
19.06.2019 10:00:00 18,9 9,2 21,7 27 14 35 19 S 80 60
19.06.2019 09:00:00 18,2 10,2 20,3 14 7 23 13 SSW 80 60
19.06.2019 08:00:00 17,5 10,2 18,6 13 7 18 10 SW 80 60
19.06.2019 07:00:00 17,0 9,5 16,9 14 8 19 10 SSW 70 27
19.06.2019 06:00:00 17,0 9,3 13,2 13 7 19 11 S 60 9
19.06.2019 05:00:00 16,5 9,5 12,2 19 10 26 14 S 60 0
19.06.2019 04:00:00 16,4 9,0 13,3 24 13 29 16 S 70 0
19.06.2019 03:00:00 16,3 8,9 13,2 23 12 29 16 S 80 0
19.06.2019 02:00:00 16,2 9,5 13,7 26 14 30 16 S 80 0
19.06.2019 01:00:00 16,2 9,9 13,1 24 13 31 17 S 80 0
19.06.2019 00:00:00 16,7 9,5 14,2 21 11 27 14 SSE 80 0
18.06.2019 23:00:00 17,0 9,7 13,8 20 11 26 14 S 80 0
18.06.2019 22:00:00 17,0 9,7 14,3 21 11 23 12 S 70 0
18.06.2019 21:00:00 17,4 9,2 14,7 19 10 22 12 SSW 80 0
18.06.2019 20:00:00 18,3 9,2 16,9 15 8 23 12 S 82 12
18.06.2019 19:00:00 19,3 7,0 21,5 16 9 25 14 SSW 80 47
18.06.2019 18:00:00 19,2 8,3 21,4 14 8 35 19 S 80 53
18.06.2019 17:00:00 19,0 7,4 24,8 21 11 36 19 SSW 82 59
18.06.2019 16:00:00 18,4 8,0 20,6 14 8 42 23 SSE 80 30
18.06.2019 15:00:00 18,8 7,2 19,6 22 12 39 21 SSW 80 46
18.06.2019 14:00:00 18,6 8,1 20,0 27 15 39 21 SSE 80 43
18.06.2019 13:00:00 18,1 7,4 21,6 27 15 38 21 SSE 80 56
18.06.2019 12:00:00 17,9 7,9 19,9 24 13 37 20 S 70 48
18.06.2019 11:00:00 18,1 8,7 22,2 20 11 33 18 SE 70 55
18.06.2019 10:00:00 16,8 9,7 18,7 17 9 27 15 SSE 70 60
18.06.2019 09:00:00 16,4 8,0 17,2 21 11 27 15 SSE 70 60
18.06.2019 08:00:00 15,9 9,2 16,7 19 11 33 18 S 70 60
18.06.2019 07:00:00 14,5 8,4 14,2 27 15 37 20 S 70 60
18.06.2019 06:00:00 14,1 7,7 11,9 31 17 41 22 S 60 28
18.06.2019 05:00:00 13,6 8,0 11,1 35 19 40 22 S 60 0
18.06.2019 04:00:00 13,4 8,3 10,8 30 16 43 23 S 60 0
18.06.2019 03:00:00 13,6 8,1 11,7 32 17 41 22 SSE 60 0
18.06.2019 02:00:00 13,9 7,7 12,0 31 17 36 20 SSE 50 0
18.06.2019 01:00:00 13,9 7,8 11,8 29 16 37 20 SSE 50 0
18.06.2019 00:00:00 14,4 7,5 12,4 34 18 39 21 SSE 45 0
17.06.2019 23:00:00 14,4 8,3 12,4 29 16 34 19 SE 50 0
17.06.2019 22:00:00 14,4 9,0 12,3 26 14 29 16 ESE 50 12
17.06.2019 21:00:00 14,5 9,1 12,2 19 10 28 15 ESE 70 60
17.06.2019 20:00:00 15,1 8,6 14,1 21 11 31 17 ESE 70 59
17.06.2019 19:00:00 15,6 8,7 18,8 21 11 28 15 SE 70 49
17.06.2019 18:00:00 15,2 8,2 15,9 18 10 28 15 SE 70 8
17.06.2019 17:00:00 15,0 8,2 16,1 20 11 29 16 ESE 60 1
17.06.2019 16:00:00 14,6 9,2 16,0 16 9 28 15 ESE 50 1
17.06.2019 15:00:00 14,4 9,1 16,3 19 11 29 16 ESE 50 0
17.06.2019 14:00:00 14,0 9,7 14,8 16 9 31 17 SE 50 11
17.06.2019 13:00:00 15,6 9,4 20,6 16 9 27 15 SE 50 32
17.06.2019 12:00:00 13,9 9,9 15,4 13 7 24 13 E 45 16
17.06.2019 11:00:00 14,0 10,1 16,9 14 7 20 11 E 40 44
17.06.2019 10:00:00 14,1 9,5 19,1 11 6 19 10 E 35 22
17.06.2019 09:00:00 13,0 9,0 13,4 4 2 10 5 ESE 50 35
17.06.2019 08:00:00 12,8 7,5 14,3 6 3 10 6 SSE 60 50
17.06.2019 07:00:00 11,3 7,2 10,5 9 5 10 5 SSE 82 0
17.06.2019 06:00:00 10,5 7,1 7,5 8 4 10 6 W 82 8
17.06.2019 05:00:00 10,8 7,5 9,0 5 3 13 7 WNW 60 0
17.06.2019 04:00:00 10,6 7,5 8,9 8 4 15 8 W 50 0
17.06.2019 03:00:00 10,5 8,3 9,0 13 7 16 9 WSW 50 0
17.06.2019 02:00:00 10,3 7,9 7,6 14 8 17 9 W 50 0
17.06.2019 01:00:00 10,4 8,0 7,9 14 8 16 9 W 60 0
17.06.2019 00:00:00 10,1 7,8 8,3 15 8 21 11 W 60 0
16.06.2019 23:00:00 10,6 7,2 9,4 13 7 17 9 W 60 0
16.06.2019 22:00:00 10,5 7,1 9,2 15 8 27 15 W 60 0
16.06.2019 21:00:00 11,1 6,2 10,0 23 12 27 14 W 60 6
16.06.2019 20:00:00 10,5 8,6 10,6 18 10 26 14 WSW 60 0
16.06.2019 19:00:00 9,4 8,3 9,6 23 13 36 20 WSW 20 0
16.06.2019 18:00:00 10,8 10,4 11,5 17 9 27 15 SSW 0,8 0
16.06.2019 17:00:00 11,6 10,0 12,6 22 12 31 17 SSW 25 0
16.06.2019 16:00:00 11,5 10,0 14,3 22 12 29 16 SSW 18 2
16.06.2019 15:00:00 10,4 9,4 11,9 19 10 27 14 SSW 4,5 0
16.06.2019 14:00:00 10,4 9,8 11,5 16 9 23 12 SSW 10 0
16.06.2019 13:00:00 10,7 8,9 12,8 15 8 23 12 WSW 16 0
16.06.2019 12:00:00 10,0 9,0 11,6 18 10 23 12 WSW 0,4 0
16.06.2019 11:00:00 10,2 9,2 11,0 19 10 26 14 WSW 15 0
16.06.2019 10:00:00 9,9 7,1 9,9 21 12 27 15 W 12 0
16.06.2019 09:00:00 9,6 7,0 8,9 22 12 26 14 WNW 15 0
16.06.2019 08:00:00 9,9 7,4 9,4 19 11 29 16 WNW 20 0
16.06.2019 07:00:00 9,9 6,8 9,6 27 14 34 18 WNW 40 0
16.06.2019 06:00:00 10,1 6,5 8,9 25 13 37 20 NW 40 2
16.06.2019 05:00:00 10,1 6,1 8,2 31 17 38 21 WNW 25 0
16.06.2019 04:00:00 9,8 6,7 7,8 32 18 36 20 WNW 25 0
16.06.2019 03:00:00 9,5 8,4 8,1 29 15 32 17 W 30 0
16.06.2019 02:00:00 9,1 8,1 7,6 18 10 30 16 NW 25 0
16.06.2019 01:00:00 9,7 8,9 8,6 29 16 41 22 NW 40 0
16.06.2019 00:00:00 10,2 9,1 9,1 35 19 46 25 WNW 40 0
15.06.2019 23:00:00 10,3 8,8 9,1 39 21 49 26 W 40 0
15.06.2019 22:00:00 10,9 9,1 9,6 40 21 50 27 W 50 11
15.06.2019 21:00:00 11,7 9,1 10,5 42 23 54 29 W 40 48
15.06.2019 20:00:00 13,1 8,9 12,8 38 20 61 33 W 60 56
15.06.2019 19:00:00 13,7 10,5 15,4 44 24 56 30 W 60 10
15.06.2019 18:00:00 14,1 10,9 14,9 41 22 58 31 W 50 6
15.06.2019 17:00:00 15,9 11,0 18,0 43 23 61 33 WSW 45 30
15.06.2019 16:00:00 15,6 10,1 17,7 42 23 61 33 WSW 40 17
15.06.2019 15:00:00 15,9 10,9 19,7 53 28 64 35 WSW 40 39
15.06.2019 14:00:00 15,0 12,6 17,3 47 26 61 33 WSW 40 25
15.06.2019 13:00:00 17,8 11,5 21,8 44 24 63 34 WSW 40 60
15.06.2019 12:00:00 16,3 12,0 20,8 44 24 59 32 SW 30 60
15.06.2019 11:00:00 16,5 12,8 20,1 46 25 62 34 SW 25 60
15.06.2019 10:00:00 17,2 12,0 19,7 49 26 66 36 SW 25 60
15.06.2019 09:00:00 17,5 12,0 19,0 39 21 50 27 SSW 25 19
15.06.2019 08:00:00 15,6 14,1 16,5 33 18 50 27 S 18 12
15.06.2019 07:00:00 15,2 14,0 14,7 36 19 54 29 S 25 0
15.06.2019 06:00:00 15,3 13,9 14,7 44 24 65 35 SE 25 0
15.06.2019 05:00:00 16,3 13,5 15,3 50 27 66 36 SE 40 0
15.06.2019 04:00:00 17,0 11,9 15,8 51 28 68 37 ESE 82 0
15.06.2019 03:00:00 15,8 10,9 14,4 46 25 61 33 E 82 0
15.06.2019 02:00:00 16,0 9,1 14,5 42 23 50 27 E 82 0
15.06.2019 01:00:00 16,7 9,3 14,9 36 19 45 24 E 82 0
15.06.2019 00:00:00 17,1 6,4 15,0 25 13 31 17 ESE 82 0
14.06.2019 23:00:00 16,4 7,2 14,3 19 10 36 19 SSE 82 0
14.06.2019 22:00:00 15,9 9,6 14,5 29 16 39 21 S 50 0
14.06.2019 21:00:00 16,3 9,0 13,5 31 17 43 23 S 40 0
14.06.2019 20:00:00 17,2 8,3 16,1 40 22 51 28 S 80 0
14.06.2019 19:00:00 18,2 8,7 17,7 24 13 38 21 S 80 11
14.06.2019 18:00:00 18,5 8,1 19,7 29 16 39 21 S 80 6
14.06.2019 17:00:00 18,4 8,1 19,6 29 16 41 22 S 82 3
14.06.2019 16:00:00 18,2 7,8 19,3 29 16 50 27 S 82 24
14.06.2019 15:00:00 18,7 5,7 20,3 39 21 63 34 S 82 55
14.06.2019 14:00:00 18,6 5,1 21,4 40 22 61 33 S 82 59
14.06.2019 13:00:00 18,2 5,4 21,8 37 20 64 35 S 82 60
14.06.2019 12:00:00 18,4 4,4 21,4 35 19 54 29 S 82 60
14.06.2019 11:00:00 16,4 7,3 19,1 42 23 58 31 S 82 60
14.06.2019 10:00:00 14,9 8,7 16,9 33 18 51 28 SSE 82 60
14.06.2019 09:00:00 13,2 7,7 14,7 32 17 47 25 SSE 82 60
14.06.2019 08:00:00 12,1 6,0 12,9 35 19 48 26 S 82 60
14.06.2019 07:00:00 11,3 4,7 11,0 32 17 42 23 SSE 82 60
14.06.2019 06:00:00 11,8 3,6 8,9 32 17 34 19 S 82 38

tt = temperature
td = dewpoint
tt 5cm = temperature 5cm
ff = wind speed
fx = gusts
dd = wind direction
vv = visibility
sd = sunshine duration

Next stations